Time;durP1;ratioP1;P1;durP2;ratioP2;P2;SDS_P1;SDS_P2;PMS_P1;PMS_P2;Temp;Humidity;BMP_temperature;BMP_pressure;BME280_temperature;BME280_humidity;BME280_pressure;Samples;Min_cycle;Max_cycle;Signal;HPM_P1;HPM_P2
2021/12/03 00:00:28;;;;;;;;;2.75;2.75;;;;;21.24;31.72;100976.69;5080785;27;45357;-49
2021/12/03 00:02:54;;;;;;;;;2.50;2.50;;;;;21.24;31.51;100979.34;5099915;27;45464;-52
2021/12/03 00:05:20;;;;;;;;;5.00;3.00;;;;;21.22;31.91;100983.00;5099859;27;45555;-53
2021/12/03 00:07:46;;;;;;;;;4.00;3.00;;;;;21.21;31.84;100978.66;5099603;27;47252;-50
2021/12/03 00:10:14;;;;;;;;;3.00;3.00;;;;;21.19;31.41;100968.22;5099997;27;45682;-52
2021/12/03 00:12:40;;;;;;;;;3.75;3.75;;;;;21.19;32.07;100970.84;5099632;27;45358;-52
2021/12/03 00:15:07;;;;;;;;;7.50;4.00;;;;;21.17;31.73;100983.25;5099197;27;45557;-55
2021/12/03 00:17:33;;;;;;;;;5.00;3.25;;;;;21.15;31.56;100985.13;5099299;27;46396;-62
2021/12/03 00:19:58;;;;;;;;;5.00;4.00;;;;;21.14;31.91;100979.03;5099277;27;45330;-57
2021/12/03 00:22:24;;;;;;;;;6.00;4.00;;;;;21.13;31.44;100979.94;5081131;27;45432;-52
2021/12/03 00:24:50;;;;;;;;;4.00;3.00;;;;;21.12;31.38;100985.28;5099666;27;45393;-52
2021/12/03 00:27:15;;;;;;;;;5.00;4.00;;;;;21.11;31.53;100984.47;5099387;27;45408;-49
2021/12/03 00:29:41;;;;;;;;;3.00;3.00;;;;;21.09;31.89;100981.06;5099404;27;45810;-49
2021/12/03 00:32:07;;;;;;;;;3.50;3.50;;;;;21.07;31.45;100976.81;5099346;27;45396;-51
2021/12/03 00:34:32;;;;;;;;;4.00;3.75;;;;;21.05;31.40;100969.00;5081105;27;45462;-49
2021/12/03 00:36:57;;;;;;;;;3.50;3.50;;;;;21.08;31.93;100981.16;5098912;27;45399;-50
2021/12/03 00:39:23;;;;;;;;;3.00;3.00;;;;;21.06;31.98;100975.09;5099039;27;45396;-50
2021/12/03 00:41:55;;;;;;;;;6.00;4.50;;;;;21.05;31.58;100976.03;5081028;27;45663;-56
2021/12/03 00:44:23;;;;;;;;;5.00;3.75;;;;;21.03;31.91;100980.53;5099190;27;45495;-49
2021/12/03 00:46:49;;;;;;;;;2.50;2.50;;;;;21.03;32.00;100981.41;5099043;27;45369;-50
2021/12/03 00:49:14;;;;;;;;;4.50;4.50;;;;;21.05;31.88;100984.81;5099225;27;45247;-52
2021/12/03 00:51:40;;;;;;;;;3.50;2.50;;;;;21.10;31.98;100981.91;5099073;27;45450;-51
2021/12/03 00:54:05;;;;;;;;;3.25;3.25;;;;;21.10;31.95;100987.19;5099204;27;45695;-48
2021/12/03 00:56:31;;;;;;;;;3.00;3.00;;;;;21.15;32.13;100987.75;5098868;27;46213;-51
2021/12/03 00:58:56;;;;;;;;;3.25;3.25;;;;;21.20;32.00;100995.41;5098787;27;45342;-49
2021/12/03 01:01:21;;;;;;;;;4.75;4.00;;;;;21.22;32.12;100996.19;5098919;27;45443;-49
2021/12/03 01:03:48;;;;;;;;;5.00;5.00;;;;;21.26;31.88;100992.44;5099373;27;45304;-56
2021/12/03 01:06:13;;;;;;;;;4.00;2.25;;;;;21.30;32.04;100999.22;5098373;27;46775;-52
2021/12/03 01:08:39;;;;;;;;;3.00;3.00;;;;;21.34;32.15;100999.91;5098711;27;45367;-48
2021/12/03 01:11:07;;;;;;;;;5.00;2.00;;;;;21.37;31.80;101002.38;5098815;27;45314;-53
2021/12/03 01:13:33;;;;;;;;;2.25;2.25;;;;;21.38;31.64;100996.16;5098771;27;45473;-59
2021/12/03 01:15:59;;;;;;;;;3.00;3.00;;;;;21.44;31.94;101003.75;5098376;27;46101;-55
2021/12/03 01:18:25;;;;;;;;;4.00;2.50;;;;;21.47;31.91;101008.84;5080101;27;45367;-52
2021/12/03 01:20:51;;;;;;;;;3.00;3.00;;;;;21.47;31.63;101008.84;5098613;27;45409;-58
2021/12/03 01:23:16;;;;;;;;;4.75;4.75;;;;;21.51;31.62;101013.00;5097778;27;45682;-56
2021/12/03 01:25:42;;;;;;;;;3.00;3.00;;;;;21.54;31.91;101017.25;5098530;27;46590;-64
2021/12/03 01:28:08;;;;;;;;;1.75;1.50;;;;;21.57;31.95;101017.91;5097282;27;45314;-62
2021/12/03 01:30:34;;;;;;;;;4.25;4.00;;;;;21.62;31.95;101022.97;5098438;27;45408;-60
2021/12/03 01:33:01;;;;;;;;;2.75;2.75;;;;;21.61;31.62;101022.13;5098521;27;45318;-58
2021/12/03 01:35:27;;;;;;;;;3.00;2.75;;;;;21.62;31.75;101015.91;5098251;27;45578;-64
2021/12/03 01:37:53;;;;;;;;;4.00;4.00;;;;;21.65;31.51;101019.31;5098314;27;45277;-59
2021/12/03 01:40:26;;;;;;;;;5.25;3.50;;;;;21.67;31.71;101022.69;5098659;27;45302;-60
2021/12/03 01:42:52;;;;;;;;;3.50;3.50;;;;;21.67;31.64;101020.06;5098725;27;45373;-51
2021/12/03 01:45:21;;;;;;;;;3.75;3.25;;;;;21.67;31.42;101018.28;5098343;27;45401;-59
2021/12/03 01:47:49;;;;;;;;;3.00;3.00;;;;;21.67;31.63;101018.28;5098345;27;45391;-49
2021/12/03 01:50:15;;;;;;;;;3.75;3.75;;;;;21.69;31.78;101026.09;5079738;27;45405;-59
2021/12/03 01:52:41;;;;;;;;;3.75;3.00;;;;;21.69;31.54;101039.28;5098342;27;45566;-60
2021/12/03 01:55:09;;;;;;;;;4.00;3.00;;;;;21.69;31.80;101032.25;5079610;27;46097;-53
2021/12/03 01:57:35;;;;;;;;;2.25;2.25;;;;;21.68;31.86;101021.75;5097868;27;46148;-50
2021/12/03 02:00:06;;;;;;;;;3.50;3.50;;;;;21.69;31.71;101036.66;5097937;27;45953;-51
2021/12/03 02:02:31;;;;;;;;;3.00;2.25;;;;;21.70;31.65;101043.63;5079748;27;45745;-50
2021/12/03 02:04:58;;;;;;;;;2.75;2.75;;;;;21.69;31.63;101045.44;5097958;27;45371;-57
2021/12/03 02:07:23;;;;;;;;;5.25;3.25;;;;;21.68;31.91;101034.94;5097568;27;45827;-53
2021/12/03 02:09:49;;;;;;;;;3.50;3.50;;;;;21.67;31.40;101030.59;5098127;27;45422;-52
2021/12/03 02:12:14;;;;;;;;;6.00;3.75;;;;;21.68;31.86;101034.94;5079767;27;45624;-54
2021/12/03 02:14:39;;;;;;;;;4.75;4.00;;;;;21.67;31.66;101034.13;5097513;27;45366;-54
2021/12/03 02:17:05;;;;;;;;;4.75;3.50;;;;;21.63;31.48;101019.38;5097614;27;45478;-54
2021/12/03 02:19:34;;;;;;;;;4.00;3.75;;;;;21.67;31.54;101022.69;5097648;27;45362;-54
2021/12/03 02:22:00;;;;;;;;;4.00;4.00;;;;;21.68;31.53;101029.66;5097753;27;45327;-56
2021/12/03 02:24:25;;;;;;;;;3.00;3.00;;;;;21.66;31.67;101027.13;5097327;27;46582;-55
2021/12/03 02:26:51;;;;;;;;;4.00;4.00;;;;;21.64;31.33;101022.91;5097757;27;45328;-52
2021/12/03 02:29:17;;;;;;;;;4.75;4.00;;;;;21.62;31.22;101031.75;5097459;27;45379;-55
2021/12/03 02:31:42;;;;;;;;;2.25;2.25;;;;;21.62;31.64;101029.09;5097507;27;45571;-57
2021/12/03 02:34:07;;;;;;;;;3.50;3.50;;;;;21.59;31.33;101021.34;5097182;27;45640;-54
2021/12/03 02:36:33;;;;;;;;;3.00;3.00;;;;;21.58;31.31;101030.16;5097382;27;45283;-57
2021/12/03 02:38:59;;;;;;;;;6.50;3.75;;;;;21.57;31.61;101030.25;5097252;27;45449;-56
2021/12/03 02:41:25;;;;;;;;;3.25;3.25;;;;;21.54;31.55;101023.38;5079204;27;45564;-49
2021/12/03 02:43:51;;;;;;;;;3.00;3.00;;;;;21.54;31.77;101022.53;5097442;27;45403;-58
2021/12/03 02:46:16;;;;;;;;;5.50;4.00;;;;;21.52;31.81;101025.25;5097013;27;45402;-54
2021/12/03 02:48:42;;;;;;;;;3.75;3.00;;;;;21.49;31.75;101022.78;5097382;27;45416;-54
2021/12/03 02:51:08;;;;;;;;;7.75;3.25;;;;;21.48;31.70;101026.34;5079024;27;45490;-53
2021/12/03 02:53:35;;;;;;;;;4.75;3.75;;;;;21.46;31.61;101015.03;5078564;27;47643;-59
2021/12/03 02:56:00;;;;;;;;;4.50;3.50;;;;;21.43;31.27;101004.69;5097184;27;45443;-51
2021/12/03 02:58:26;;;;;;;;;3.00;3.00;;;;;21.43;31.49;101005.53;5097300;27;45354;-50
2021/12/03 03:00:52;;;;;;;;;6.00;4.75;;;;;21.44;31.66;101003.75;5097483;27;45227;-51
2021/12/03 03:03:18;;;;;;;;;3.00;3.00;;;;;21.42;31.70;100995.06;5096771;27;45581;-50
2021/12/03 03:06:03;;;;;;;;;2.75;2.75;;;;;21.40;31.61;100984.59;5096977;27;45245;-48
2021/12/03 03:08:31;;;;;;;;;5.00;4.00;;;;;21.41;31.78;100978.38;5096888;27;45358;-50
2021/12/03 03:11:00;;;;;;;;;3.50;3.00;;;;;21.40;31.81;100983.75;5097170;27;45437;-54
2021/12/03 03:13:25;;;;;;;;;3.75;3.75;;;;;21.38;31.90;100981.22;5096899;27;46504;-57
2021/12/03 03:15:51;;;;;;;;;3.00;3.00;;;;;21.36;31.66;100982.22;5097122;27;45329;-60
2021/12/03 03:18:23;;;;;;;;;1.75;1.75;;;;;21.36;31.88;100982.22;5096895;27;45212;-53
2021/12/03 03:20:50;;;;;;;;;5.00;3.25;;;;;21.34;31.37;100973.53;5096929;27;45369;-59
2021/12/03 03:23:16;;;;;;;;;3.25;3.25;;;;;21.31;31.57;100980.72;5096652;27;46245;-62
2021/12/03 03:25:43;;;;;;;;;4.00;4.00;;;;;21.27;31.43;100966.00;5078294;27;45918;-62
2021/12/03 03:28:10;;;;;;;;;3.00;3.00;;;;;21.28;31.48;100980.00;5096806;27;45205;-56
2021/12/03 03:30:37;;;;;;;;;3.50;3.50;;;;;21.26;31.82;100974.00;5096882;27;45592;-59
2021/12/03 03:33:03;;;;;;;;;2.00;2.00;;;;;21.23;31.59;100972.38;5078064;27;47241;-53
2021/12/03 03:35:29;;;;;;;;;4.50;3.00;;;;;21.24;31.59;100973.22;5096460;27;45826;-52
2021/12/03 03:37:55;;;;;;;;;3.00;3.00;;;;;21.18;31.52;100977.06;5096879;27;46027;-51
2021/12/03 03:40:21;;;;;;;;;4.00;4.00;;;;;21.20;31.50;100979.59;5096715;27;45203;-50
2021/12/03 03:42:46;;;;;;;;;3.75;3.75;;;;;21.18;31.68;100982.34;5096286;27;46283;-51
2021/12/03 03:45:14;;;;;;;;;6.25;4.00;;;;;21.17;32.06;100980.63;5096470;27;45248;-56
2021/12/03 03:47:40;;;;;;;;;4.50;2.25;;;;;21.15;31.81;100979.84;5096612;27;45275;-50
2021/12/03 03:50:08;;;;;;;;;3.75;3.75;;;;;21.14;31.61;100972.88;5096705;27;45547;-49
2021/12/03 03:52:36;;;;;;;;;2.75;2.25;;;;;21.12;31.37;100975.63;5099794;27;45610;-52
2021/12/03 03:55:02;;;;;;;;;3.00;3.00;;;;;21.12;31.59;100980.03;5099707;27;45462;-53
2021/12/03 03:57:27;;;;;;;;;2.00;2.00;;;;;21.11;31.64;100975.72;5100323;27;45269;-51
2021/12/03 03:59:54;;;;;;;;;3.25;3.25;;;;;21.09;31.79;100974.94;5100214;27;45323;-55
2021/12/03 04:02:20;;;;;;;;;3.00;3.00;;;;;21.08;32.02;100974.06;5099656;27;46356;-52
2021/12/03 04:04:45;;;;;;;;;4.25;3.00;;;;;21.07;31.78;100967.09;5099842;27;45654;-53
2021/12/03 04:07:10;;;;;;;;;3.00;3.00;;;;;21.06;31.74;100965.41;5099633;27;45283;-52
2021/12/03 04:09:36;;;;;;;;;4.00;4.00;;;;;21.05;31.75;100968.13;5099866;27;45336;-51
2021/12/03 04:12:01;;;;;;;;;3.00;3.00;;;;;21.01;31.35;100965.66;5099427;27;46172;-52
2021/12/03 04:14:27;;;;;;;;;6.00;4.00;;;;;21.01;31.85;100968.28;5099750;27;45291;-53
2021/12/03 04:16:52;;;;;;;;;3.00;3.00;;;;;21.01;31.94;100956.91;5081187;27;45366;-51
2021/12/03 04:19:18;;;;;;;;;3.00;3.00;;;;;21.00;31.42;100952.56;5081455;27;45482;-52
2021/12/03 04:21:44;;;;;;;;;3.25;3.25;;;;;20.98;31.89;100947.41;5099291;27;46303;-56
2021/12/03 04:24:10;;;;;;;;;5.00;3.50;;;;;20.97;31.55;100948.34;5099341;27;45477;-54
2021/12/03 04:26:35;;;;;;;;;3.00;3.00;;;;;20.96;31.81;100946.63;5099657;27;45516;-53
2021/12/03 04:29:00;;;;;;;;;3.00;3.00;;;;;20.98;32.42;100957.06;5099577;27;45259;-52
2021/12/03 04:31:27;;;;;;;;;4.00;4.00;;;;;20.99;31.97;100964.91;5099510;27;46444;-53
2021/12/03 04:33:52;;;;;;;;;4.50;4.00;;;;;21.04;31.81;100964.66;5099123;27;45245;-48
2021/12/03 04:36:18;;;;;;;;;4.00;4.00;;;;;21.08;31.86;100973.25;5081081;27;45363;-59
2021/12/03 04:38:44;;;;;;;;;3.50;3.25;;;;;21.11;31.75;100958.09;5099234;27;45269;-58
2021/12/03 04:41:09;;;;;;;;;3.50;2.50;;;;;21.16;31.80;100947.28;5099128;27;45612;-62
2021/12/03 04:43:34;;;;;;;;;3.00;3.00;;;;;21.19;31.75;100954.16;5099201;27;45204;-51
2021/12/03 04:46:00;;;;;;;;;4.00;3.25;;;;;21.22;31.45;100954.00;5099475;27;45362;-56
2021/12/03 04:48:25;;;;;;;;;3.25;3.25;;;;;21.27;31.83;100949.34;5099706;27;45615;-54
2021/12/03 04:50:51;;;;;;;;;4.50;4.00;;;;;21.31;31.81;100943.81;5098916;27;45653;-48
2021/12/03 04:53:19;;;;;;;;;3.75;3.75;;;;;21.35;31.67;100948.88;5099020;27;45984;-54
2021/12/03 04:55:44;;;;;;;;;2.75;2.75;;;;;21.38;31.87;100949.56;5099057;27;45331;-54
2021/12/03 04:58:10;;;;;;;;;4.00;3.00;;;;;21.42;31.47;100958.16;5099263;27;45311;-59
2021/12/03 05:00:43;;;;;;;;;4.00;4.00;;;;;21.43;31.75;100952.78;5098763;27;46131;-54
2021/12/03 05:03:10;;;;;;;;;5.00;4.00;;;;;21.43;30.90;100959.84;5098730;27;45755;-51
2021/12/03 05:05:36;;;;;;;;;4.25;4.00;;;;;21.45;30.58;100955.31;5099121;27;45284;-49
2021/12/03 05:08:10;;;;;;;;;5.00;5.00;;;;;21.46;30.59;100951.75;5098640;27;45522;-53
2021/12/03 05:10:39;;;;;;;;;4.00;4.00;;;;;21.45;30.91;100953.56;5080186;27;48274;-54
2021/12/03 05:13:05;;;;;;;;;4.00;4.00;;;;;21.45;30.72;100934.22;5098692;27;45348;-52
2021/12/03 05:15:33;;;;;;;;;5.00;4.00;;;;;21.46;30.27;100928.88;5099185;27;45424;-57
2021/12/03 05:17:58;;;;;;;;;2.25;2.25;;;;;21.47;30.31;100920.03;5099211;27;45303;-60
2021/12/03 05:20:24;;;;;;;;;5.00;5.00;;;;;21.48;30.02;100918.25;5098288;27;47127;-62
2021/12/03 05:22:49;;;;;;;;;5.00;5.00;;;;;21.46;29.77;100914.84;5098593;27;45347;-56
2021/12/03 05:25:15;;;;;;;;;3.25;3.25;;;;;21.44;29.68;100922.00;5098751;27;45325;-54
2021/12/03 05:27:40;;;;;;;;;3.00;3.00;;;;;21.39;29.25;100918.78;5098790;27;45346;-52
2021/12/03 05:30:08;;;;;;;;;4.00;4.00;;;;;21.34;29.65;100915.53;5098330;27;46141;-55
2021/12/03 05:32:34;;;;;;;;;5.75;5.00;;;;;21.33;29.41;100919.16;5098487;27;45339;-53
2021/12/03 05:34:59;;;;;;;;;5.00;5.00;;;;;21.27;29.03;100915.06;5098894;27;45436;-55
2021/12/03 05:37:25;;;;;;;;;6.50;5.00;;;;;21.24;29.28;100910.81;5098678;27;45523;-52
2021/12/03 05:39:50;;;;;;;;;4.25;3.00;;;;;21.20;29.10;100908.44;5079785;27;48198;-59
2021/12/03 05:42:15;;;;;;;;;4.00;3.25;;;;;21.16;29.61;100913.91;5098257;27;45398;-56
2021/12/03 05:44:41;;;;;;;;;4.00;4.00;;;;;21.11;29.50;100910.66;5080065;27;45422;-55
2021/12/03 05:47:06;;;;;;;;;3.75;3.00;;;;;21.08;29.50;100910.00;5080013;27;45300;-59
2021/12/03 05:49:32;;;;;;;;;4.25;3.25;;;;;21.03;29.78;100906.75;5098128;27;45505;-55
2021/12/03 05:51:58;;;;;;;;;4.50;3.25;;;;;21.00;29.67;100907.78;5097998;27;45403;-61
2021/12/03 05:54:26;;;;;;;;;4.00;3.00;;;;;20.98;29.35;100904.38;5098183;27;45272;-58
2021/12/03 05:56:51;;;;;;;;;3.75;3.50;;;;;20.96;29.40;100903.59;5098433;27;45542;-61
2021/12/03 05:59:17;;;;;;;;;4.75;4.00;;;;;20.93;29.49;100890.63;5097884;27;45521;-59
2021/12/03 06:01:42;;;;;;;;;2.50;2.50;;;;;20.89;29.87;100895.19;5097951;27;45216;-51
2021/12/03 06:04:08;;;;;;;;;4.00;4.00;;;;;20.86;29.72;100882.22;5097897;27;45161;-53
2021/12/03 06:06:33;;;;;;;;;5.00;3.50;;;;;20.83;29.48;100870.06;5098318;27;45514;-57
2021/12/03 06:08:59;;;;;;;;;2.50;2.50;;;;;20.79;29.95;100871.16;5079161;27;45364;-57
2021/12/03 06:11:25;;;;;;;;;2.00;2.00;;;;;20.77;29.70;100870.41;5097782;27;45320;-59
2021/12/03 06:13:51;;;;;;;;;4.50;4.25;;;;;20.72;29.41;100867.16;5097157;27;45307;-57
2021/12/03 06:16:16;;;;;;;;;3.00;3.00;;;;;20.71;29.65;100876.00;5097939;27;45543;-56
2021/12/03 06:18:42;;;;;;;;;4.75;3.50;;;;;20.67;29.50;100871.81;5079040;27;47159;-58
2021/12/03 06:21:10;;;;;;;;;5.25;3.00;;;;;20.67;29.65;100880.56;5097511;27;45367;-55
2021/12/03 06:23:36;;;;;;;;;3.00;3.00;;;;;20.64;30.03;100877.25;5062644;27;45423;-54
2021/12/03 06:26:02;;;;;;;;;4.00;2.25;;;;;20.60;29.32;100879.22;5098068;27;45210;-49
2021/12/03 06:28:29;;;;;;;;;3.00;3.00;;;;;20.58;29.46;100890.75;5097376;27;46340;-51
2021/12/03 06:30:55;;;;;;;;;3.50;3.50;;;;;20.53;29.64;100886.59;5097446;27;45774;-52
2021/12/03 06:33:21;;;;;;;;;5.00;3.00;;;;;20.49;29.73;100882.44;5079219;27;45894;-48
2021/12/03 06:35:48;;;;;;;;;4.25;4.00;;;;;20.47;29.91;100892.19;5097642;27;45483;-51
2021/12/03 06:38:15;;;;;;;;;3.25;3.25;;;;;20.44;30.05;100887.09;5097374;27;45549;-51
2021/12/03 06:40:42;;;;;;;;;3.00;2.75;;;;;20.42;30.06;100885.47;5078455;27;45706;-48
2021/12/03 06:43:07;;;;;;;;;4.00;3.00;;;;;20.38;29.71;100883.00;5097605;27;45374;-49
2021/12/03 06:45:33;;;;;;;;;4.00;4.00;;;;;20.34;29.85;100878.84;5098014;27;45423;-49
2021/12/03 06:47:58;;;;;;;;;3.50;2.75;;;;;20.35;29.61;100887.59;5097050;27;46176;-52
2021/12/03 06:50:24;;;;;;;;;6.00;4.25;;;;;20.32;29.96;100886.00;5097215;27;45247;-52
2021/12/03 06:53:02;;;;;;;;;3.00;3.00;;;;;20.31;29.92;100884.28;5097406;27;45255;-52
2021/12/03 06:55:29;;;;;;;;;3.00;3.00;;;;;20.30;29.91;100881.72;5097474;27;45420;-53
2021/12/03 06:57:55;;;;;;;;;4.00;4.00;;;;;20.28;29.79;100881.81;5097030;27;46577;-50
2021/12/03 07:00:22;;;;;;;;;3.00;3.00;;;;;20.25;29.50;100876.69;5096971;27;45501;-51
2021/12/03 07:02:48;;;;;;;;;4.00;2.75;;;;;20.24;29.68;100889.03;5097135;27;45231;-62
2021/12/03 07:05:14;;;;;;;;;5.25;3.00;;;;;20.23;29.99;100868.03;5097149;27;45185;-60
2021/12/03 07:07:41;;;;;;;;;5.75;4.00;;;;;20.21;30.38;100873.38;5096726;27;45409;-54
2021/12/03 07:10:07;;;;;;;;;4.50;3.00;;;;;20.24;30.05;100872.38;5096562;27;45898;-56
2021/12/03 07:12:33;;;;;;;;;3.00;3.00;;;;;20.26;29.89;100875.75;5079028;27;45280;-62
2021/12/03 07:14:59;;;;;;;;;5.00;4.00;;;;;20.27;29.93;100872.22;5097171;27;45616;-62
2021/12/03 07:17:26;;;;;;;;;6.50;3.75;;;;;20.30;30.70;100869.41;5078416;27;46525;-53
2021/12/03 07:19:55;;;;;;;;;2.75;2.25;;;;;20.32;30.31;100859.66;5096600;27;45317;-52
2021/12/03 07:22:21;;;;;;;;;3.25;3.25;;;;;20.36;29.83;100873.50;5096845;27;45351;-48
2021/12/03 07:24:46;;;;;;;;;4.75;3.00;;;;;20.38;30.42;100858.47;5096939;27;45363;-55
2021/12/03 07:27:12;;;;;;;;;2.25;2.25;;;;;20.39;30.39;100850.50;5095637;27;45509;-50
2021/12/03 07:29:37;;;;;;;;;3.00;2.00;;;;;20.41;30.56;100841.66;5100547;27;45359;-48
2021/12/03 07:32:03;;;;;;;;;3.00;2.00;;;;;20.46;30.07;100860.66;5100677;27;45822;-54
2021/12/03 07:34:28;;;;;;;;;2.00;2.00;;;;;20.49;30.23;100857.88;5100521;27;45639;-52
2021/12/03 07:36:54;;;;;;;;;3.00;3.00;;;;;20.48;30.00;100853.53;5100085;27;46006;-57
2021/12/03 07:39:20;;;;;;;;;2.00;2.00;;;;;20.51;30.26;100856.00;5099995;27;45343;-51
2021/12/03 07:41:45;;;;;;;;;2.25;2.25;;;;;20.55;30.28;100865.47;5100365;27;45367;-55
2021/12/03 07:44:11;;;;;;;;;3.25;2.00;;;;;20.53;30.38;100862.88;5100347;27;45224;-59
2021/12/03 07:46:36;;;;;;;;;1.25;1.25;;;;;20.58;30.05;100869.69;5100321;27;45362;-52
2021/12/03 07:49:03;;;;;;;;;2.75;2.00;;;;;20.59;30.37;100872.22;5100006;27;45266;-59
2021/12/03 07:51:28;;;;;;;;;4.00;3.00;;;;;20.60;30.22;100867.84;5081859;27;45432;-57
2021/12/03 07:53:53;;;;;;;;;3.00;2.00;;;;;20.61;30.22;100867.75;5100393;27;45428;-54
2021/12/03 07:56:19;;;;;;;;;2.00;2.00;;;;;20.62;30.32;100866.81;5083017;27;46308;-53
2021/12/03 07:58:47;;;;;;;;;2.25;2.25;;;;;20.61;30.11;100854.56;5079349;27;45277;-61
2021/12/03 08:01:13;;;;;;;;;4.25;3.00;;;;;20.64;30.52;100858.81;5079600;28;45344;-63
2021/12/03 08:03:39;;;;;;;;;2.00;2.00;;;;;20.65;30.20;100856.13;5080050;28;45391;-62
2021/12/03 08:06:08;;;;;;;;;2.75;2.00;;;;;20.65;30.68;100856.13;5079219;27;45446;-60
2021/12/03 08:08:36;;;;;;;;;1.00;1.00;;;;;20.65;30.31;100853.47;5078610;28;45643;-53
2021/12/03 08:11:02;;;;;;;;;2.50;2.00;;;;;20.64;30.49;100849.16;5079339;27;45260;-60
2021/12/03 08:13:27;;;;;;;;;4.50;2.00;;;;;20.67;30.35;100859.50;5079445;28;45312;-52
2021/12/03 08:15:53;;;;;;;;;2.00;2.00;;;;;20.67;30.12;100854.22;5079085;27;46592;-54
2021/12/03 08:18:19;;;;;;;;;6.25;2.25;;;;;20.66;30.24;100855.19;5079023;27;45287;-56
2021/12/03 08:20:45;;;;;;;;;2.75;2.50;;;;;20.62;30.41;100840.47;5079056;28;45390;-56
2021/12/03 08:23:12;;;;;;;;;3.00;3.00;;;;;20.62;30.31;100851.00;5079664;28;45380;-57
2021/12/03 08:25:37;;;;;;;;;2.00;2.00;;;;;20.64;30.90;100853.53;5079360;27;46252;-52
2021/12/03 08:28:03;;;;;;;;;1.50;1.50;;;;;20.61;30.74;100848.47;5079033;28;45208;-58
2021/12/03 08:30:29;;;;;;;;;2.00;2.00;;;;;20.61;30.75;100854.56;5079021;28;45315;-55
2021/12/03 08:32:55;;;;;;;;;4.00;2.00;;;;;20.61;30.80;100862.47;5079211;27;45693;-56
2021/12/03 08:35:21;;;;;;;;;3.00;1.75;;;;;20.60;30.44;100855.50;5078980;28;46177;-59
2021/12/03 08:37:48;;;;;;;;;1.00;1.00;;;;;20.58;30.55;100851.25;5078545;28;45315;-58
2021/12/03 08:40:15;;;;;;;;;3.50;1.00;;;;;20.57;31.09;100853.03;5060507;28;45406;-57
2021/12/03 08:42:41;;;;;;;;;0.50;0.50;;;;;20.54;30.53;100850.59;5061115;28;45551;-59
2021/12/03 08:45:07;;;;;;;;;3.00;2.25;;;;;20.58;30.77;100857.38;5078665;28;46164;-58
2021/12/03 08:47:34;;;;;;;;;2.00;1.75;;;;;20.59;30.98;100856.44;5078596;27;45455;-58
2021/12/03 08:50:01;;;;;;;;;1.00;1.00;;;;;20.60;31.16;100855.50;5078746;27;45473;-53
2021/12/03 08:52:45;;;;;;;;;2.25;2.25;;;;;20.62;31.30;100850.13;5078866;28;45523;-61
2021/12/03 08:55:10;;;;;;;;;2.00;2.00;;;;;20.61;31.23;100853.75;5078570;27;46250;-62
2021/12/03 08:57:36;;;;;;;;;2.25;2.25;;;;;20.65;31.18;100860.50;5078555;28;45276;-60
2021/12/03 09:00:12;;;;;;;;;1.00;1.00;;;;;20.65;31.55;100861.38;5078515;28;45379;-60
2021/12/03 09:02:38;;;;;;;;;3.00;1.50;;;;;20.56;31.67;100838.16;5079116;27;45486;-56
2021/12/03 09:05:05;;;;;;;;;3.25;1.00;;;;;20.68;31.57;100860.34;5078401;28;46239;-59
2021/12/03 09:07:30;;;;;;;;;2.00;2.00;;;;;20.68;31.35;100853.28;5078146;28;45285;-61
2021/12/03 09:09:57;;;;;;;;;1.00;1.00;;;;;20.70;31.96;100859.31;5078333;27;45321;-53
2021/12/03 09:12:22;;;;;;;;;2.50;1.00;;;;;20.69;31.85;100852.34;5078502;27;45218;-49
2021/12/03 09:15:04;;;;;;;;;1.50;1.50;;;;;20.72;31.95;100861.03;5078173;28;45810;-54
2021/12/03 09:22:48;;;;;;;;;3.00;1.00;;;;;20.76;31.70;100846.78;5078464;28;45361;-51
2021/12/03 09:25:18;;;;;;;;;2.50;2.50;;;;;20.74;31.77;100838.09;5059929;28;47174;-52
2021/12/03 09:27:44;;;;;;;;;5.25;2.00;;;;;20.72;32.05;100839.94;5059901;28;45444;-51
2021/12/03 09:30:14;;;;;;;;;1.00;1.00;;;;;20.68;31.47;100829.59;5077431;27;45316;-54
2021/12/03 09:32:42;;;;;;;;;2.25;1.25;;;;;20.65;32.04;100821.00;5078519;28;45554;-48
2021/12/03 09:35:11;;;;;;;;;1.00;1.00;;;;;20.64;32.02;100827.22;5042692;28;46028;-50
2021/12/03 09:37:36;;;;;;;;;2.50;2.50;;;;;20.61;31.32;100820.34;5077840;27;45821;-55
2021/12/03 09:40:07;;;;;;;;;2.75;1.75;;;;;20.60;31.92;100826.53;5077890;28;45603;-53
2021/12/03 09:42:36;;;;;;;;;2.25;1.50;;;;;20.60;31.38;100820.44;5078105;27;45295;-54
2021/12/03 09:45:05;;;;;;;;;5.00;2.75;;;;;20.54;31.40;100811.09;5078062;27;46480;-55
2021/12/03 09:47:31;;;;;;;;;2.00;2.00;;;;;20.54;32.01;100819.00;5059550;28;45341;-53
2021/12/03 09:49:59;;;;;;;;;2.25;2.25;;;;;20.52;31.73;100810.31;5077103;28;45316;-56
2021/12/03 09:55:15;;;;;;;;;2.25;1.25;;;;;20.47;31.84;100807.94;5066802;28;46260;-48
2021/12/03 09:58:22;;;;;;;;;3.50;1.50;;;;;20.46;31.77;100795.72;5078926;28;45438;-51
2021/12/03 10:01:28;;;;;;;;;2.00;2.00;;;;;20.46;31.19;100808.00;5075389;28;45434;-50
2021/12/03 10:14:48;;;;;;;;;1.00;1.00;;;;;20.37;31.72;100802.34;5051625;27;45612;-52
2021/12/03 10:57:10;;;;;;;;;3.25;1.50;;;;;21.05;31.22;100713.38;5077141;28;45309;-61
2021/12/03 10:59:52;;;;;;;;;2.00;2.00;;;;;21.08;31.20;100709.72;5075970;28;45297;-55
2021/12/03 11:39:55;;;;;;;;;2.00;1.00;;;;;20.99;31.18;100640.81;5018780;28;45459;-48
2021/12/03 12:36:23;;;;;;;;;1.00;1.00;;;;;20.64;31.03;100514.72;5079076;28;45414;-49
2021/12/03 14:17:40;;;;;;;;;0.50;0.00;;;;;20.33;32.21;100353.38;5077263;28;45740;-53
2021/12/03 14:51:11;;;;;;;;;1.00;1.00;;;;;21.03;32.27;100287.56;5077317;28;45753;-57
2021/12/03 14:56:09;;;;;;;;;3.00;1.00;;;;;21.13;32.85;100283.38;5077029;28;45280;-57
2021/12/03 14:58:50;;;;;;;;;1.00;1.00;;;;;21.16;32.79;100275.25;5076664;27;46681;-55
2021/12/03 15:01:40;;;;;;;;;0.00;0.00;;;;;21.24;32.16;100270.31;5076737;28;45677;-57
2021/12/03 15:07:27;;;;;;;;;0.75;0.75;;;;;21.28;32.30;100256.00;5034192;28;45488;-59
2021/12/03 15:09:54;;;;;;;;;0.00;0.00;;;;;21.28;32.48;100248.09;5037822;28;45715;-54
2021/12/03 15:33:08;;;;;;;;;0.50;0.50;;;;;21.15;32.52;100241.94;5096576;27;45480;-61
2021/12/03 16:05:10;;;;;;;;;1.25;0.00;;;;;20.88;32.16;100213.91;5100221;27;45327;-57
2021/12/03 16:10:47;;;;;;;;;0.00;0.00;;;;;20.85;32.01;100198.28;5100068;27;45267;-55
2021/12/03 16:13:28;;;;;;;;;3.00;1.00;;;;;20.82;32.39;100188.81;5081122;27;46935;-55
2021/12/03 16:51:18;;;;;;;;;0.00;0.00;;;;;20.60;32.63;100110.34;5099614;27;45318;-52
2021/12/03 16:53:48;;;;;;;;;1.25;0.00;;;;;20.57;32.20;100096.56;5080769;27;45609;-53
2021/12/03 16:56:20;;;;;;;;;2.00;1.00;;;;;20.59;32.47;100113.09;5098851;27;46450;-54
2021/12/03 16:58:46;;;;;;;;;1.00;1.00;;;;;20.57;32.38;100094.75;5098593;27;45406;-51
2021/12/03 17:51:45;;;;;;;;;1.00;1.00;;;;;20.65;33.55;100029.28;5098457;27;45604;-55
2021/12/03 17:56:44;;;;;;;;;1.00;1.00;;;;;20.65;33.28;100018.75;5098572;27;45414;-53
2021/12/03 18:01:58;;;;;;;;;1.00;1.00;;;;;20.63;33.28;100004.84;5097713;27;45226;-51
2021/12/03 18:04:40;;;;;;;;;1.50;1.00;;;;;20.63;33.41;99975.88;5097965;27;45704;-53
2021/12/03 18:12:48;;;;;;;;;2.00;2.00;;;;;20.63;33.15;99967.97;5081959;27;45473;-55
2021/12/03 18:18:39;;;;;;;;;3.00;2.00;;;;;20.58;33.54;99953.47;5097707;27;45322;-69
2021/12/03 18:55:57;;;;;;;;;3.00;2.00;;;;;20.64;33.60;99890.69;5096764;27;45431;-61
2021/12/03 18:58:25;;;;;;;;;2.00;2.00;;;;;20.61;33.77;99880.38;5096578;27;45416;-64
2021/12/03 19:00:51;;;;;;;;;1.75;1.75;;;;;20.64;33.42;99880.16;5096598;27;45838;-55
2021/12/03 19:03:32;;;;;;;;;2.00;2.00;;;;;20.61;33.96;99875.09;5096548;27;46251;-60
2021/12/03 19:06:05;;;;;;;;;3.00;1.00;;;;;20.63;33.52;99878.47;5096594;27;45483;-57
2021/12/03 19:11:03;;;;;;;;;2.50;2.50;;;;;20.63;33.74;99873.19;5096938;27;45480;-63
2021/12/03 19:13:35;;;;;;;;;1.50;1.50;;;;;20.63;33.86;99867.06;5095970;27;46290;-56
2021/12/03 19:16:02;;;;;;;;;4.25;3.00;;;;;20.65;33.78;99867.81;5096464;27;45799;-58
2021/12/03 19:18:28;;;;;;;;;2.00;2.00;;;;;20.63;33.93;99865.31;5096425;27;45275;-56
2021/12/03 19:20:53;;;;;;;;;2.50;2.50;;;;;20.63;34.11;99857.41;5097790;27;45345;-57
2021/12/03 19:23:19;;;;;;;;;2.00;2.00;;;;;20.60;34.20;99848.91;5100174;27;46254;-56